createdAt,value
2023-01-12T00:02:26.674Z,8.17
2023-01-12T00:04:57.609Z,7.03
2023-01-12T00:07:29.192Z,6.87
2023-01-12T00:09:58.732Z,6.97
2023-01-12T00:12:28.377Z,7.50
2023-01-12T00:14:57.556Z,7.63
2023-01-12T00:17:26.719Z,7.43
2023-01-12T00:19:57.403Z,7.77
2023-01-12T00:22:26.954Z,7.57
2023-01-12T00:24:56.353Z,6.90
2023-01-12T00:27:25.616Z,7.33
2023-01-12T00:29:55.316Z,7.00
2023-01-12T00:32:24.659Z,7.47
2023-01-12T00:34:53.644Z,6.97
2023-01-12T00:37:25.525Z,7.13
2023-01-12T00:40:01.793Z,7.07
2023-01-12T00:42:49.170Z,7.13
2023-01-12T00:45:25.055Z,6.83
2023-01-12T00:47:55.296Z,6.90
2023-01-12T00:50:24.926Z,6.77
2023-01-12T00:52:55.890Z,6.93
2023-01-12T00:55:25.370Z,6.70
2023-01-12T00:57:54.603Z,6.87
2023-01-12T01:00:23.899Z,7.17
2023-01-12T01:02:53.365Z,7.60
2023-01-12T01:05:22.643Z,7.13
2023-01-12T01:07:51.749Z,6.90
2023-01-12T01:10:22.420Z,7.10
2023-01-12T01:12:52.415Z,6.60
2023-01-12T01:15:22.163Z,6.37
2023-01-12T01:17:51.656Z,7.07
2023-01-12T01:20:20.883Z,7.27
2023-01-12T01:22:50.263Z,7.20
2023-01-12T01:25:19.657Z,7.07
2023-01-12T01:27:50.429Z,7.23
2023-01-12T01:30:19.865Z,7.70
2023-01-12T01:32:48.881Z,7.57
2023-01-12T01:35:18.329Z,6.83
2023-01-12T01:37:47.888Z,7.53
2023-01-12T01:40:17.134Z,7.77
2023-01-12T01:42:46.518Z,6.93
2023-01-12T01:45:17.531Z,7.30
2023-01-12T01:47:50.991Z,7.93
2023-01-12T01:50:25.036Z,7.10
2023-01-12T01:52:57.208Z,7.07
2023-01-12T01:55:30.018Z,7.77
2023-01-12T01:58:02.438Z,6.40
2023-01-12T02:00:33.058Z,8.47
2023-01-12T02:03:06.470Z,8.20
2023-01-12T02:05:36.445Z,7.07
2023-01-12T02:08:12.184Z,7.03
2023-01-12T02:10:42.019Z,7.27
2023-01-12T02:13:28.348Z,7.60
2023-01-12T02:16:21.139Z,8.13
2023-01-12T02:19:11.608Z,7.70
2023-01-12T02:22:23.279Z,7.10
2023-01-12T02:25:28.584Z,6.83
2023-01-12T02:28:18.861Z,6.90
2023-01-12T02:31:22.567Z,7.07
2023-01-12T02:34:05.241Z,6.40
2023-01-12T02:36:41.847Z,5.93
2023-01-12T02:39:18.001Z,6.80
2023-01-12T02:42:12.135Z,6.67
2023-01-12T02:44:46.850Z,7.03
2023-01-12T02:47:24.498Z,6.77
2023-01-12T02:50:00.590Z,7.37
2023-01-12T02:52:33.307Z,6.90
2023-01-12T02:55:04.370Z,6.53
2023-01-12T02:57:36.008Z,7.10
2023-01-12T03:00:08.159Z,6.90
2023-01-12T03:02:37.688Z,6.93
2023-01-12T03:05:09.949Z,6.83
2023-01-12T03:07:47.221Z,7.17
2023-01-12T03:10:26.524Z,6.70
2023-01-12T03:12:57.476Z,7.40
2023-01-12T03:15:29.829Z,7.30
2023-01-12T03:18:02.244Z,7.77
2023-01-12T03:20:36.556Z,7.90
2023-01-12T03:23:10.723Z,7.50
2023-01-12T03:25:43.443Z,8.47
2023-01-12T03:28:14.830Z,7.87
2023-01-12T03:30:47.945Z,8.20
2023-01-12T03:33:17.167Z,7.97
2023-01-12T03:35:55.505Z,7.77
2023-01-12T03:38:30.594Z,7.57
2023-01-12T03:41:05.483Z,7.67
2023-01-12T03:43:41.288Z,8.33
2023-01-12T03:46:16.991Z,8.30
2023-01-12T03:48:51.570Z,7.47
2023-01-12T03:51:26.500Z,8.80
2023-01-12T03:53:57.932Z,9.37
2023-01-12T03:56:30.649Z,11.20
2023-01-12T03:59:00.314Z,9.53
2023-01-12T04:01:29.819Z,8.80
2023-01-12T04:04:00.927Z,8.47
2023-01-12T04:06:31.192Z,8.20
2023-01-12T04:09:00.410Z,8.07
2023-01-12T04:12:01.705Z,7.07
2023-01-12T04:14:30.952Z,7.07
2023-01-12T04:17:01.600Z,7.70
2023-01-12T04:19:30.862Z,6.53
2023-01-12T04:22:17.836Z,6.70
2023-01-12T04:24:46.936Z,6.60
2023-01-12T04:27:15.828Z,6.10
2023-01-12T04:29:45.288Z,6.63
2023-01-12T04:32:14.853Z,6.57
2023-01-12T04:34:44.430Z,6.87
2023-01-12T04:37:14.917Z,6.67
2023-01-12T04:39:44.058Z,6.57
2023-01-12T04:42:26.816Z,6.13
2023-01-12T04:44:56.083Z,6.80
2023-01-12T04:47:25.484Z,6.73
2023-01-12T04:49:54.791Z,6.90
2023-01-12T04:52:25.792Z,6.63
2023-01-12T04:54:56.797Z,6.63
2023-01-12T04:57:26.203Z,6.70
2023-01-12T04:59:55.520Z,6.47
2023-01-12T05:02:25.144Z,5.60
2023-01-12T05:04:54.276Z,7.13
2023-01-12T05:07:23.584Z,7.30
2023-01-12T05:10:11.952Z,8.57
2023-01-12T05:12:42.230Z,7.90
2023-01-12T05:15:12.058Z,8.57
2023-01-12T05:17:41.435Z,8.63
2023-01-12T05:20:11.878Z,7.27
2023-01-12T05:22:41.130Z,6.17
2023-01-12T05:25:12.354Z,5.40
2023-01-12T05:27:41.292Z,6.83
2023-01-12T05:30:12.032Z,7.00
2023-01-12T05:32:43.118Z,5.23
2023-01-12T05:35:12.949Z,6.27
2023-01-12T05:37:42.256Z,6.47
2023-01-12T05:40:15.884Z,7.27
2023-01-12T05:43:02.965Z,6.63
2023-01-12T05:45:32.305Z,5.30
2023-01-12T05:48:02.607Z,4.93
2023-01-12T05:50:32.003Z,4.63
2023-01-12T05:53:10.595Z,5.87
2023-01-12T05:55:41.493Z,7.53
2023-01-12T05:58:10.648Z,6.10
2023-01-12T06:00:40.186Z,5.87
2023-01-12T06:03:09.529Z,5.57
2023-01-12T06:05:38.539Z,5.90
2023-01-12T06:08:08.070Z,5.60
2023-01-12T06:10:39.611Z,5.67
2023-01-12T06:13:28.328Z,5.00
2023-01-12T06:16:05.193Z,6.10
2023-01-12T06:18:36.394Z,5.43
2023-01-12T06:21:06.116Z,5.30
2023-01-12T06:23:36.052Z,5.07
2023-01-12T06:26:06.002Z,5.80
2023-01-12T06:28:37.505Z,6.13
2023-01-12T06:31:08.849Z,7.03
2023-01-12T06:33:38.425Z,6.50
2023-01-12T06:36:08.663Z,6.17
2023-01-12T06:38:38.928Z,5.83
2023-01-12T06:41:29.424Z,6.67
2023-01-12T06:44:00.591Z,5.93
2023-01-12T06:46:30.022Z,6.80
2023-01-12T06:48:59.253Z,5.40
2023-01-12T06:51:28.521Z,5.00
2023-01-12T06:53:57.924Z,5.90
2023-01-12T06:56:26.822Z,5.43
2023-01-12T06:58:56.083Z,6.37
2023-01-12T07:01:28.592Z,6.07
2023-01-12T07:03:58.178Z,6.10
2023-01-12T07:06:27.683Z,6.83
2023-01-12T07:08:56.825Z,6.10
2023-01-12T07:11:26.611Z,6.13
2023-01-12T07:13:57.026Z,6.43
2023-01-12T07:16:27.680Z,5.77
2023-01-12T07:18:57.056Z,6.50
2023-01-12T07:21:26.475Z,6.30
2023-01-12T07:23:55.770Z,6.73
2023-01-12T07:26:24.919Z,8.00
2023-01-12T07:28:54.209Z,6.27
2023-01-12T07:31:24.152Z,6.90
2023-01-12T07:33:55.403Z,7.03
2023-01-12T07:36:26.108Z,7.53
2023-01-12T07:38:55.948Z,6.20
2023-01-12T07:41:43.949Z,6.80
2023-01-12T07:44:15.126Z,6.67
2023-01-12T07:46:44.071Z,7.50
2023-01-12T07:49:14.646Z,6.60
2023-01-12T07:51:45.686Z,5.57
2023-01-12T07:54:15.347Z,5.43
2023-01-12T07:56:46.652Z,5.10
2023-01-12T07:59:16.229Z,5.33
2023-01-12T08:01:45.533Z,5.70
2023-01-12T08:04:16.312Z,5.37
2023-01-12T08:06:45.610Z,5.10
2023-01-12T08:09:14.779Z,5.17
2023-01-12T08:11:44.270Z,4.90
2023-01-12T08:14:23.231Z,5.17
2023-01-12T08:16:54.820Z,5.50
2023-01-12T08:19:29.113Z,4.50
2023-01-12T08:22:04.050Z,4.40
2023-01-12T08:24:38.507Z,4.37
2023-01-12T08:27:10.304Z,4.10
2023-01-12T08:29:44.444Z,3.87
2023-01-12T08:32:18.587Z,2.70
2023-01-12T08:34:52.241Z,2.73
2023-01-12T08:37:25.105Z,3.27
2023-01-12T08:39:54.996Z,2.60
2023-01-12T08:42:27.303Z,3.50
2023-01-12T08:44:56.842Z,2.30
2023-01-12T08:47:28.743Z,2.73
2023-01-12T08:50:03.379Z,3.10
2023-01-12T08:52:33.438Z,2.50
2023-01-12T08:55:02.762Z,3.37
2023-01-12T08:57:32.024Z,2.90
2023-01-12T09:00:01.662Z,2.63
2023-01-12T09:02:30.703Z,3.60
2023-01-12T09:05:06.245Z,3.50
2023-01-12T09:07:35.745Z,2.90
2023-01-12T09:10:07.302Z,2.90
2023-01-12T09:12:37.476Z,2.83
2023-01-12T09:15:07.620Z,2.60
2023-01-12T09:17:37.140Z,2.10
2023-01-12T09:20:09.815Z,2.77
2023-01-12T09:22:39.721Z,2.63
2023-01-12T09:25:08.984Z,3.30
2023-01-12T09:27:39.291Z,2.30
2023-01-12T09:30:09.365Z,2.90
2023-01-12T09:32:38.994Z,2.00
2023-01-12T09:35:11.513Z,2.10
2023-01-12T09:37:43.961Z,1.90
2023-01-12T09:40:16.803Z,1.40
2023-01-12T09:43:08.058Z,1.80
2023-01-12T09:45:54.944Z,1.70
2023-01-12T09:48:25.596Z,1.80
2023-01-12T09:51:01.481Z,1.70
2023-01-12T09:53:34.991Z,1.90
2023-01-12T09:56:16.783Z,2.13
2023-01-12T09:59:25.605Z,1.80
2023-01-12T10:01:55.885Z,1.40
2023-01-12T10:04:26.453Z,1.77
2023-01-12T10:06:57.763Z,1.30
2023-01-12T10:09:27.560Z,1.50
2023-01-12T10:12:06.096Z,1.57
2023-01-12T10:15:13.176Z,1.53
2023-01-12T10:17:51.530Z,1.83
2023-01-12T10:20:29.267Z,1.20
2023-01-12T10:23:10.526Z,1.80
2023-01-12T10:25:43.323Z,1.63
2023-01-12T10:28:20.338Z,1.87
2023-01-12T10:30:50.150Z,1.33
2023-01-12T10:33:21.951Z,2.10
2023-01-12T10:35:55.284Z,0.87
2023-01-12T10:38:29.461Z,1.10
2023-01-12T10:41:14.902Z,1.10
2023-01-12T10:43:45.346Z,1.40
2023-01-12T10:46:18.226Z,1.43
2023-01-12T10:48:49.072Z,1.70
2023-01-12T10:51:27.818Z,2.13
2023-01-12T10:54:02.424Z,1.40
2023-01-12T10:56:36.717Z,1.50
2023-01-12T10:59:09.035Z,1.30
2023-01-12T11:01:45.881Z,1.43
2023-01-12T11:04:17.118Z,1.80
2023-01-12T11:06:59.646Z,1.90
2023-01-12T11:09:32.495Z,1.67
2023-01-12T11:12:03.632Z,1.70
2023-01-12T11:14:36.197Z,0.90
2023-01-12T11:17:23.207Z,1.23
2023-01-12T11:19:53.354Z,1.40
2023-01-12T11:22:27.730Z,1.43
2023-01-12T11:25:03.280Z,1.70
2023-01-12T11:27:36.100Z,1.50
2023-01-12T11:30:16.905Z,1.50
2023-01-12T11:32:55.061Z,1.43
2023-01-12T11:35:32.318Z,1.73
2023-01-12T11:38:05.781Z,1.20
2023-01-12T11:40:38.027Z,1.23
2023-01-12T11:43:35.345Z,1.33
2023-01-12T11:46:09.374Z,1.10
2023-01-12T11:48:48.128Z,1.50
2023-01-12T11:51:18.463Z,1.23
2023-01-12T11:53:48.399Z,1.40
2023-01-12T11:56:30.873Z,1.00
2023-01-12T11:59:07.866Z,1.15
2023-01-12T12:01:45.614Z,1.55
2023-01-12T12:04:24.187Z,1.52
2023-01-12T12:07:06.870Z,1.48
2023-01-12T12:09:44.656Z,1.40
2023-01-12T12:12:20.825Z,1.48
2023-01-12T12:15:06.379Z,1.40
2023-01-12T12:17:41.840Z,1.30
2023-01-12T12:20:18.927Z,1.25
2023-01-12T12:23:02.148Z,1.35
2023-01-12T12:25:39.404Z,1.83
2023-01-12T12:28:34.812Z,1.67
2023-01-12T12:31:17.279Z,1.40
2023-01-12T12:34:00.620Z,1.27
2023-01-12T12:36:37.311Z,1.55
2023-01-12T12:39:38.647Z,1.52
2023-01-12T12:42:38.393Z,1.73
2023-01-12T12:45:19.273Z,1.40
2023-01-12T12:47:59.327Z,1.13
2023-01-12T12:50:35.018Z,1.20
2023-01-12T12:53:24.392Z,1.58
2023-01-12T12:55:54.728Z,1.52
2023-01-12T12:58:41.746Z,1.30
2023-01-12T13:01:56.134Z,1.20
2023-01-12T13:05:04.517Z,1.40
2023-01-12T13:07:38.445Z,1.42
2023-01-12T13:10:32.868Z,1.42
2023-01-12T13:13:06.655Z,1.20
2023-01-12T13:15:38.318Z,1.33
2023-01-12T13:18:45.283Z,1.73
2023-01-12T13:21:32.591Z,1.57
2023-01-12T13:24:23.961Z,1.53
2023-01-12T13:26:54.244Z,1.37
2023-01-12T13:29:48.144Z,1.60
2023-01-12T13:32:39.647Z,1.50
2023-01-12T13:35:30.043Z,1.30
2023-01-12T13:38:05.173Z,1.50
2023-01-12T13:40:34.832Z,1.50
2023-01-12T13:43:18.210Z,2.00
2023-01-12T13:45:57.972Z,1.67
2023-01-12T13:48:28.117Z,2.10
2023-01-12T13:51:04.176Z,1.70
2023-01-12T13:53:34.274Z,1.40
2023-01-12T13:56:06.043Z,4.20
2023-01-12T13:58:41.338Z,4.40
2023-01-12T14:01:26.666Z,3.30
2023-01-12T14:04:18.065Z,4.70
2023-01-12T14:06:57.306Z,3.73
2023-01-12T14:09:36.910Z,3.80
2023-01-12T14:12:26.540Z,3.90
2023-01-12T14:15:45.024Z,4.17
2023-01-12T14:18:16.489Z,3.10
2023-01-12T14:20:47.159Z,3.30
2023-01-12T14:23:20.838Z,2.50
2023-01-12T14:26:08.708Z,2.57
2023-01-12T14:28:38.255Z,2.17
2023-01-12T14:31:10.444Z,2.47
2023-01-12T14:33:41.368Z,3.43
2023-01-12T14:36:17.947Z,4.80
2023-01-12T14:38:48.467Z,5.00
2023-01-12T14:41:38.056Z,5.27
2023-01-12T14:44:25.133Z,5.63
2023-01-12T14:46:55.609Z,7.93
2023-01-12T14:49:29.655Z,6.63
2023-01-12T14:52:01.073Z,5.70
2023-01-12T14:54:33.474Z,6.43
2023-01-12T14:57:05.167Z,6.67
2023-01-12T14:59:36.229Z,7.60
2023-01-12T15:02:31.356Z,5.53
2023-01-12T15:05:03.482Z,4.23
2023-01-12T15:07:35.484Z,3.90
2023-01-12T15:10:40.068Z,3.70
2023-01-12T15:13:27.663Z,2.93
2023-01-12T15:16:15.340Z,2.40
2023-01-12T15:19:02.042Z,2.40
2023-01-12T15:21:49.802Z,2.73
2023-01-12T15:24:41.794Z,2.13
2023-01-12T15:27:13.827Z,2.90
2023-01-12T15:29:43.277Z,2.47
2023-01-12T15:32:19.858Z,2.60
2023-01-12T15:34:49.584Z,2.30
2023-01-12T15:37:21.161Z,2.77
2023-01-12T15:39:50.363Z,2.60
2023-01-12T15:42:23.114Z,2.20
2023-01-12T15:44:53.893Z,3.07
2023-01-12T15:47:23.487Z,2.90
2023-01-12T15:49:53.721Z,3.13
2023-01-12T15:52:25.353Z,2.07
2023-01-12T15:54:58.036Z,4.90
2023-01-12T15:57:28.862Z,2.70
2023-01-12T15:59:57.980Z,2.97
2023-01-12T16:02:33.181Z,3.47
2023-01-12T16:05:03.348Z,2.63
2023-01-12T16:07:32.410Z,2.77
2023-01-12T16:10:02.402Z,2.80
2023-01-12T16:12:32.895Z,2.30
2023-01-12T16:15:02.820Z,2.83
2023-01-12T16:17:32.387Z,2.90
2023-01-12T16:20:02.217Z,2.40
2023-01-12T16:22:33.881Z,2.70
2023-01-12T16:25:04.389Z,2.10
2023-01-12T16:27:36.594Z,2.53
2023-01-12T16:30:07.002Z,2.17
2023-01-12T16:32:36.681Z,2.40
2023-01-12T16:35:06.253Z,2.07
2023-01-12T16:37:35.898Z,2.03
2023-01-12T16:40:05.143Z,2.70
2023-01-12T16:42:36.053Z,1.83
2023-01-12T16:45:06.497Z,2.20
2023-01-12T16:47:35.750Z,1.90
2023-01-12T16:50:05.402Z,2.23
2023-01-12T16:52:34.851Z,2.10
2023-01-12T16:55:05.904Z,2.93
2023-01-12T16:57:37.740Z,2.50
2023-01-12T17:00:07.883Z,2.03
2023-01-12T17:02:38.074Z,1.53
2023-01-12T17:05:10.966Z,3.17
2023-01-12T17:07:40.792Z,3.97
2023-01-12T17:10:10.772Z,3.43
2023-01-12T17:12:54.323Z,2.77
2023-01-12T17:15:28.798Z,2.70
2023-01-12T17:17:58.738Z,2.07
2023-01-12T17:20:30.846Z,1.97
2023-01-12T17:23:01.099Z,2.70
2023-01-12T17:25:30.567Z,2.23
2023-01-12T17:28:01.655Z,1.77
2023-01-12T17:30:31.369Z,2.37
2023-01-12T17:33:01.381Z,2.90
2023-01-12T17:35:31.075Z,3.20
2023-01-12T17:38:01.361Z,2.30
2023-01-12T17:40:32.240Z,2.70
2023-01-12T17:43:08.270Z,2.87
2023-01-12T17:45:43.313Z,2.20
2023-01-12T17:48:13.676Z,3.10
2023-01-12T17:50:43.407Z,3.17
2023-01-12T17:53:14.141Z,2.30
2023-01-12T17:55:48.673Z,2.60
2023-01-12T17:58:20.449Z,2.90
2023-01-12T18:00:50.196Z,2.83
2023-01-12T18:03:21.868Z,2.47
2023-01-12T18:06:02.786Z,2.67
2023-01-12T18:08:36.362Z,2.83
2023-01-12T18:11:06.398Z,2.13
2023-01-12T18:13:39.456Z,2.77
2023-01-12T18:16:13.079Z,2.30
2023-01-12T18:18:42.633Z,4.47
2023-01-12T18:21:14.601Z,5.80
2023-01-12T18:23:45.076Z,5.03
2023-01-12T18:26:16.364Z,4.50
2023-01-12T18:28:47.966Z,2.80
2023-01-12T18:31:18.863Z,2.50
2023-01-12T18:33:48.691Z,2.73
2023-01-12T18:36:20.859Z,2.77
2023-01-12T18:38:51.659Z,2.13
2023-01-12T18:41:39.077Z,2.43
2023-01-12T18:44:09.907Z,2.10
2023-01-12T18:47:02.992Z,1.83
2023-01-12T18:49:34.645Z,2.00
2023-01-12T18:52:21.517Z,1.77
2023-01-12T18:54:53.675Z,2.10
2023-01-12T18:57:24.538Z,2.10
2023-01-12T18:59:57.375Z,1.90
2023-01-12T19:02:27.239Z,2.10
2023-01-12T19:05:19.357Z,2.13
2023-01-12T19:08:25.935Z,2.40
2023-01-12T19:10:54.313Z,2.30
2023-01-12T19:13:41.272Z,2.33
2023-01-12T19:16:32.804Z,2.13
2023-01-12T19:19:02.432Z,2.10
2023-01-12T19:21:48.937Z,2.80
2023-01-12T19:24:35.552Z,2.93
2023-01-12T19:27:22.491Z,2.63
2023-01-12T19:29:52.274Z,2.40
2023-01-12T19:32:23.170Z,2.70
2023-01-12T19:34:56.576Z,2.50
2023-01-12T19:37:31.924Z,2.23
2023-01-12T19:40:04.239Z,2.73
2023-01-12T19:42:52.025Z,2.53
2023-01-12T19:45:21.645Z,2.67
2023-01-12T19:47:53.128Z,2.70
2023-01-12T19:50:22.545Z,2.53
2023-01-12T19:52:52.695Z,2.50
2023-01-12T19:55:23.249Z,2.87
2023-01-12T19:57:54.474Z,2.53
2023-01-12T20:00:25.057Z,2.77
2023-01-12T20:02:55.995Z,2.80
2023-01-12T20:05:25.912Z,2.60
2023-01-12T20:07:56.218Z,2.07
2023-01-12T20:10:26.089Z,2.27
2023-01-12T20:12:55.764Z,2.40
2023-01-12T20:15:25.796Z,2.43
2023-01-12T20:18:00.547Z,1.87
2023-01-12T20:20:59.086Z,1.87
2023-01-12T20:23:47.022Z,2.07
2023-01-12T20:26:38.135Z,2.03
2023-01-12T20:29:25.628Z,2.00
2023-01-12T20:32:26.086Z,2.40
2023-01-12T20:35:09.068Z,2.00
2023-01-12T20:37:59.244Z,2.00
2023-01-12T20:41:17.480Z,2.20
2023-01-12T20:43:51.378Z,1.87
2023-01-12T20:46:31.552Z,2.27
2023-01-12T20:52:04.204Z,2.93
2023-01-12T20:54:41.685Z,3.83
2023-01-12T20:57:27.217Z,2.60
2023-01-12T21:00:20.151Z,2.70
2023-01-12T21:03:17.190Z,2.27
2023-01-12T21:06:09.285Z,2.97
2023-01-12T21:11:56.408Z,2.13
2023-01-12T21:14:39.403Z,2.00
2023-01-12T21:17:11.851Z,2.10
2023-01-12T21:20:04.939Z,2.50
2023-01-12T21:22:51.471Z,2.40
2023-01-12T21:28:35.673Z,2.60
2023-01-12T21:31:11.987Z,2.70
2023-01-12T21:33:53.353Z,2.87
2023-01-12T21:36:58.817Z,2.37
2023-01-12T21:43:45.911Z,2.37
2023-01-12T21:47:13.979Z,2.13
2023-01-12T21:49:50.587Z,1.77
2023-01-12T22:01:57.731Z,2.20
2023-01-12T22:13:51.881Z,2.73
2023-01-12T22:19:50.987Z,2.00
2023-01-12T22:28:20.760Z,2.57
2023-01-12T22:30:50.276Z,2.37
2023-01-12T22:33:21.684Z,2.60
2023-01-12T22:35:55.764Z,2.80
2023-01-12T22:38:25.166Z,2.17
2023-01-12T22:40:54.432Z,2.20
2023-01-12T22:43:30.150Z,1.97
2023-01-12T22:46:00.254Z,1.90
2023-01-12T22:48:31.865Z,2.10
2023-01-12T22:51:03.542Z,2.00
2023-01-12T22:53:33.262Z,2.03
2023-01-12T22:56:03.647Z,1.90
2023-01-12T22:58:33.460Z,1.90
2023-01-12T23:01:06.802Z,1.77
2023-01-12T23:03:36.927Z,1.17
2023-01-12T23:06:08.760Z,1.57
2023-01-12T23:08:38.285Z,1.50
2023-01-12T23:11:09.715Z,1.57
2023-01-12T23:13:39.166Z,1.37
2023-01-12T23:16:10.408Z,1.80
2023-01-12T23:18:40.434Z,1.40
2023-01-12T23:21:15.922Z,1.80
2023-01-12T23:23:49.228Z,1.73
2023-01-12T23:26:20.485Z,1.53
2023-01-12T23:28:51.831Z,1.50
2023-01-12T23:31:22.615Z,1.13
2023-01-12T23:33:53.950Z,1.97
2023-01-12T23:36:25.938Z,1.53
2023-01-12T23:38:55.629Z,1.20
2023-01-12T23:41:26.972Z,1.17
2023-01-12T23:43:59.645Z,1.80
2023-01-12T23:46:29.661Z,1.60
2023-01-12T23:48:59.547Z,2.17
2023-01-12T23:51:31.223Z,1.80
2023-01-12T23:54:02.649Z,3.00
2023-01-12T23:56:34.434Z,2.00
2023-01-12T23:59:04.113Z,2.20
